Loup City, Nebraska
Current Conditions -  °F | °C
As of 2:53 AM on Thursday 27 Nov 2014 (Local Time) from KODX Reporting Station
Overcast Overcast  
Wind Chill: 16°   Ceiling: 9000
Heat Index: 16°   Visibility: 10mi
Dew Point: 12°   Wind: 0mph
Humidity: 84%   Direction: NA
Pressure: 30.4"   Gusts: NA
Location:  41.28°N, 98.97°W
Report Text: KODX 270853Z AUTO 00000KT 10SM OVC090 M09/M11 A3040 RMK AO2 SLP329 T10891111 55005
Loading
Personal Weather Stations






























Interactive Weather Map New forecast layout! Learn more

10-Day Weather Forecast

Advertisements
Track Severe Weather on mobile